createdAt,value
2019-05-19T01:59:23.783Z,12.40
2019-05-19T02:01:55.583Z,12.70
2019-05-19T02:04:27.587Z,12.60
2019-05-19T02:06:57.600Z,12.60
2019-05-19T02:09:27.778Z,12.50
2019-05-19T02:11:57.750Z,12.70
2019-05-19T02:14:27.635Z,12.50
2019-05-19T02:16:58.852Z,12.60
2019-05-19T02:19:28.659Z,12.60
2019-05-19T02:21:58.846Z,12.80
2019-05-19T02:24:28.686Z,12.70
2019-05-19T02:26:58.708Z,12.50
2019-05-19T02:29:28.891Z,12.30
2019-05-19T02:31:58.716Z,12.50
2019-05-19T02:34:28.920Z,12.50
2019-05-19T02:36:58.976Z,12.50
2019-05-19T02:39:29.264Z,12.40
2019-05-19T02:42:00.369Z,12.40
2019-05-19T02:47:06.047Z,12.30
2019-05-19T02:49:39.126Z,12.20
2019-05-19T02:52:13.042Z,12.20
2019-05-19T02:54:43.864Z,12.10
2019-05-19T02:57:14.064Z,12.20
2019-05-19T02:59:48.238Z,12.20
2019-05-19T03:02:18.113Z,12.30
2019-05-19T03:04:50.160Z,12.20
2019-05-19T03:07:20.179Z,12.10
2019-05-19T03:09:50.576Z,12.30
2019-05-19T03:12:20.566Z,12.20
2019-05-19T03:14:50.562Z,12.20
2019-05-19T03:17:20.675Z,12.10
2019-05-19T03:19:51.031Z,12.00
2019-05-19T03:22:23.298Z,11.90
2019-05-19T03:24:53.234Z,11.80
2019-05-19T03:27:25.733Z,11.90
2019-05-19T03:29:58.085Z,12.00
2019-05-19T03:32:38.314Z,11.90
2019-05-19T03:35:16.280Z,11.80
2019-05-19T03:37:46.240Z,11.80
2019-05-19T03:40:22.155Z,11.80
2019-05-19T03:42:52.712Z,11.90
2019-05-19T03:45:22.789Z,11.90
2019-05-19T03:47:52.756Z,11.90
2019-05-19T03:50:25.452Z,11.80
2019-05-19T03:52:55.474Z,11.80
2019-05-19T03:55:25.419Z,11.90
2019-05-19T03:57:58.261Z,11.90
2019-05-19T04:00:28.275Z,11.80
2019-05-19T04:02:58.308Z,12.00
2019-05-19T04:05:31.462Z,11.90
2019-05-19T04:08:01.553Z,11.90
2019-05-19T04:10:32.518Z,12.00
2019-05-19T04:13:04.566Z,12.00
2019-05-19T04:15:34.599Z,12.10
2019-05-19T04:18:04.594Z,12.00
2019-05-19T04:20:35.590Z,12.00
2019-05-19T04:23:07.586Z,12.10
2019-05-19T04:25:37.419Z,12.20
2019-05-19T04:28:08.774Z,12.20
2019-05-19T04:30:40.026Z,12.30
2019-05-19T04:33:12.653Z,12.30
2019-05-19T04:35:45.111Z,12.40
2019-05-19T04:38:15.085Z,12.40
2019-05-19T04:40:45.202Z,12.50
2019-05-19T04:43:15.133Z,12.40
2019-05-19T04:45:45.177Z,12.60
2019-05-19T04:48:15.101Z,12.60
2019-05-19T04:50:45.137Z,12.60
2019-05-19T04:53:15.126Z,12.70
2019-05-19T04:55:45.173Z,12.80
2019-05-19T04:58:15.183Z,13.00
2019-05-19T05:00:45.200Z,13.00
2019-05-19T05:03:15.240Z,12.90
2019-05-19T05:05:46.774Z,12.90
2019-05-19T05:08:28.823Z,12.90
2019-05-19T05:10:50.666Z,12.90
2019-05-19T05:13:22.700Z,12.90
2019-05-19T05:15:58.897Z,12.80
2019-05-19T05:18:30.994Z,12.70
2019-05-19T05:21:01.321Z,12.80
2019-05-19T05:23:31.361Z,12.80
2019-05-19T05:26:03.789Z,12.70
2019-05-19T05:28:35.808Z,12.60
2019-05-19T05:31:05.822Z,12.70
2019-05-19T05:33:37.832Z,12.50
2019-05-19T05:36:07.993Z,12.60
2019-05-19T05:38:43.554Z,12.70
2019-05-19T05:41:15.873Z,12.80
2019-05-19T05:43:46.090Z,12.80
2019-05-19T05:46:17.494Z,12.80
2019-05-19T05:48:56.996Z,12.70
2019-05-19T05:51:32.727Z,12.60
2019-05-19T05:54:05.638Z,12.70
2019-05-19T05:56:38.507Z,12.70
2019-05-19T05:59:12.988Z,12.70
2019-05-19T06:01:45.695Z,13.10
2019-05-19T06:04:19.137Z,13.20
2019-05-19T06:06:48.996Z,13.30
2019-05-19T06:09:19.150Z,13.50
2019-05-19T06:11:51.222Z,13.90
2019-05-19T06:14:23.253Z,14.00
2019-05-19T06:16:55.234Z,14.40
2019-05-19T06:19:27.275Z,14.70
2019-05-19T06:21:59.812Z,15.10
2019-05-19T06:24:32.111Z,15.50
2019-05-19T06:27:06.304Z,15.40
2019-05-19T06:29:38.157Z,15.40
2019-05-19T06:32:20.354Z,15.20
2019-05-19T06:34:52.463Z,15.00
2019-05-19T06:37:22.827Z,15.00
2019-05-19T06:39:54.837Z,15.30
2019-05-19T06:42:26.785Z,15.40
2019-05-19T06:44:58.871Z,15.70
2019-05-19T06:47:30.870Z,16.00
2019-05-19T06:50:03.523Z,16.30
2019-05-19T06:52:35.864Z,16.50
2019-05-19T06:57:46.970Z,15.90
2019-05-19T07:10:25.962Z,16.30
2019-05-19T07:12:55.992Z,16.60
2019-05-19T07:25:34.142Z,16.20
2019-05-19T07:33:10.306Z,16.50
2019-05-19T07:38:09.752Z,16.90
2019-05-19T07:40:39.758Z,17.30
2019-05-19T07:43:11.164Z,17.60
2019-05-19T07:45:42.355Z,17.60
2019-05-19T07:48:12.289Z,17.50
2019-05-19T07:50:42.223Z,17.20
2019-05-19T07:53:12.337Z,17.40
2019-05-19T07:55:42.290Z,17.40
2019-05-19T07:58:14.203Z,17.70
2019-05-19T08:00:44.319Z,17.60
2019-05-19T08:03:22.881Z,17.10
2019-05-19T08:05:52.867Z,17.50
2019-05-19T08:08:35.079Z,17.40
2019-05-19T08:11:05.895Z,18.00
2019-05-19T08:13:35.921Z,18.20
2019-05-19T08:16:06.347Z,18.00
2019-05-19T08:18:37.001Z,18.00
2019-05-19T08:21:07.387Z,18.10
2019-05-19T08:23:38.114Z,18.10
2019-05-19T08:26:12.425Z,18.00
2019-05-19T08:28:42.601Z,18.00
2019-05-19T08:31:12.538Z,17.90
2019-05-19T08:33:43.670Z,18.20
2019-05-19T08:36:13.407Z,18.10
2019-05-19T08:38:44.586Z,18.30
2019-05-19T08:41:15.126Z,18.30
2019-05-19T08:43:45.657Z,18.10
2019-05-19T08:46:23.114Z,18.40
2019-05-19T08:48:53.565Z,18.60
2019-05-19T08:51:23.841Z,19.00
2019-05-19T08:53:56.146Z,19.10
2019-05-19T08:56:26.670Z,19.10
2019-05-19T08:59:01.772Z,19.10
2019-05-19T09:01:32.802Z,19.20
2019-05-19T09:04:13.247Z,19.40
2019-05-19T09:06:44.924Z,19.30
2019-05-19T09:09:21.935Z,19.50
2019-05-19T09:11:57.503Z,19.40
2019-05-19T09:14:34.778Z,19.30
2019-05-19T09:17:04.833Z,19.30
2019-05-19T09:19:36.671Z,19.30
2019-05-19T09:22:09.745Z,19.40
2019-05-19T09:24:39.501Z,19.80
2019-05-19T09:27:09.103Z,20.10
2019-05-19T09:29:40.461Z,19.70
2019-05-19T09:32:13.134Z,19.50
2019-05-19T09:34:42.658Z,19.40
2019-05-19T09:37:13.331Z,19.10
2019-05-19T09:39:43.419Z,19.00
2019-05-19T09:42:13.444Z,18.70
2019-05-19T09:44:43.497Z,18.90
2019-05-19T09:47:13.547Z,18.80
2019-05-19T09:49:43.541Z,18.90
2019-05-19T09:52:16.986Z,19.00
2019-05-19T09:54:46.019Z,19.10
2019-05-19T09:57:16.050Z,19.00
2019-05-19T09:59:46.137Z,18.80
2019-05-19T10:02:16.665Z,18.70
2019-05-19T10:04:46.463Z,18.50
2019-05-19T10:07:16.224Z,18.70
2019-05-19T10:10:17.054Z,18.60
2019-05-19T10:12:47.619Z,18.60
2019-05-19T10:15:17.710Z,18.60
2019-05-19T10:17:48.108Z,18.70
2019-05-19T10:20:18.571Z,18.70
2019-05-19T10:22:48.775Z,18.70
2019-05-19T10:25:22.901Z,18.60
2019-05-19T10:27:52.799Z,18.50
2019-05-19T10:30:22.797Z,18.60
2019-05-19T10:32:52.744Z,18.50
2019-05-19T10:35:22.780Z,18.80
2019-05-19T10:37:52.865Z,18.90
2019-05-19T10:40:22.688Z,19.00
2019-05-19T10:42:52.677Z,19.10
2019-05-19T10:45:25.362Z,19.10
2019-05-19T10:47:56.296Z,19.20
2019-05-19T10:50:26.741Z,19.30
2019-05-19T10:52:57.015Z,19.50
2019-05-19T10:55:36.280Z,19.60
2019-05-19T10:57:58.342Z,19.60
2019-05-19T11:00:28.810Z,19.70
2019-05-19T11:02:59.006Z,19.80
2019-05-19T11:05:28.819Z,19.70
2019-05-19T11:07:59.072Z,19.90
2019-05-19T11:10:28.965Z,19.90
2019-05-19T11:12:59.142Z,20.20
2019-05-19T11:15:29.099Z,20.30
2019-05-19T11:17:59.143Z,20.30
2019-05-19T11:20:29.122Z,20.40
2019-05-19T11:23:00.497Z,20.50
2019-05-19T11:25:34.105Z,20.50
2019-05-19T11:28:02.186Z,20.50
2019-05-19T11:30:31.990Z,20.60
2019-05-19T11:33:02.287Z,20.70
2019-05-19T11:35:32.364Z,20.80
2019-05-19T11:38:02.737Z,20.90
2019-05-19T11:40:32.694Z,21.00
2019-05-19T11:43:02.721Z,21.10
2019-05-19T11:45:33.060Z,21.20
2019-05-19T11:48:03.321Z,21.30
2019-05-19T11:50:33.280Z,21.50
2019-05-19T11:53:04.102Z,21.50
2019-05-19T11:55:34.308Z,21.50
2019-05-19T11:58:04.318Z,21.40
2019-05-19T12:00:34.127Z,21.60
2019-05-19T12:03:04.494Z,21.60
2019-05-19T12:05:34.793Z,21.50
2019-05-19T12:08:05.439Z,21.60
2019-05-19T12:10:35.530Z,21.60
2019-05-19T12:13:05.415Z,21.80
2019-05-19T12:15:35.829Z,21.80
2019-05-19T12:18:06.016Z,21.90
2019-05-19T12:20:35.864Z,22.00
2019-05-19T12:23:05.864Z,22.00
2019-05-19T12:25:35.930Z,22.10
2019-05-19T12:28:06.078Z,22.00
2019-05-19T12:30:36.035Z,22.10
2019-05-19T12:33:06.356Z,22.20
2019-05-19T12:35:36.121Z,22.20
2019-05-19T12:38:06.412Z,22.50
2019-05-19T12:40:36.602Z,22.60
2019-05-19T12:43:06.668Z,22.60
2019-05-19T12:45:39.703Z,22.60
2019-05-19T12:48:13.759Z,22.70
2019-05-19T12:50:43.647Z,22.70
2019-05-19T12:53:13.761Z,22.60
2019-05-19T12:55:46.718Z,22.80
2019-05-19T12:58:16.707Z,23.00
2019-05-19T13:00:46.790Z,23.10
2019-05-19T13:03:16.696Z,23.20
2019-05-19T13:05:46.758Z,23.30
2019-05-19T13:08:19.128Z,23.40
2019-05-19T13:10:49.591Z,23.60
2019-05-19T13:13:19.573Z,23.60
2019-05-19T13:15:50.151Z,23.50
2019-05-19T13:18:20.260Z,23.50
2019-05-19T13:20:50.347Z,23.30
2019-05-19T13:23:20.645Z,23.30
2019-05-19T13:25:51.210Z,23.40
2019-05-19T13:28:21.601Z,23.30
2019-05-19T13:30:51.871Z,23.30
2019-05-19T13:33:21.937Z,23.20
2019-05-19T13:35:52.315Z,23.20
2019-05-19T13:38:22.695Z,23.10
2019-05-19T13:40:52.989Z,23.10
2019-05-19T13:43:26.331Z,23.30
2019-05-19T13:45:56.022Z,23.60
2019-05-19T13:48:26.085Z,23.90
2019-05-19T13:50:56.032Z,23.90
2019-05-19T13:53:26.054Z,23.80
2019-05-19T13:55:56.146Z,23.80
2019-05-19T13:58:26.083Z,24.00
2019-05-19T14:00:56.489Z,23.90
2019-05-19T14:03:26.912Z,23.80
2019-05-19T14:05:57.510Z,23.80
2019-05-19T14:08:27.593Z,23.60
2019-05-19T14:10:57.564Z,23.60
2019-05-19T14:13:27.554Z,23.60
2019-05-19T14:15:57.570Z,23.50
2019-05-19T14:18:27.713Z,23.50
2019-05-19T14:20:57.763Z,23.60
2019-05-19T14:23:29.949Z,23.90
2019-05-19T14:26:00.642Z,23.90
2019-05-19T14:28:38.980Z,24.20
2019-05-19T14:31:09.254Z,24.00
2019-05-19T14:33:39.277Z,23.70
2019-05-19T14:36:09.286Z,23.70
2019-05-19T14:39:05.247Z,23.70
2019-05-19T14:41:38.721Z,23.70
2019-05-19T14:44:09.361Z,23.80
2019-05-19T14:46:39.485Z,23.50
2019-05-19T14:49:09.709Z,23.60
2019-05-19T14:51:40.198Z,23.70
2019-05-19T14:54:10.459Z,24.00
2019-05-19T14:56:40.484Z,23.60
2019-05-19T14:59:10.481Z,23.50
2019-05-19T15:01:40.537Z,23.40
2019-05-19T15:04:10.555Z,23.20
2019-05-19T15:06:40.920Z,23.20
2019-05-19T15:09:12.546Z,23.40
2019-05-19T15:11:42.337Z,23.50
2019-05-19T15:14:12.351Z,23.30
2019-05-19T15:16:43.039Z,23.30
2019-05-19T15:19:13.014Z,23.30
2019-05-19T15:21:42.996Z,23.40
2019-05-19T15:24:18.591Z,23.30
2019-05-19T15:26:48.425Z,22.90
2019-05-19T15:29:18.433Z,22.70
2019-05-19T15:31:48.685Z,22.80
2019-05-19T15:34:19.022Z,22.90
2019-05-19T15:36:49.124Z,22.80
2019-05-19T15:39:20.530Z,22.70
2019-05-19T15:41:50.676Z,22.60
2019-05-19T15:44:22.717Z,22.60
2019-05-19T15:46:52.862Z,22.50
2019-05-19T15:49:24.735Z,22.30
2019-05-19T15:52:03.049Z,22.20
2019-05-19T15:54:30.614Z,22.00
2019-05-19T15:57:00.847Z,21.70
2019-05-19T15:59:30.830Z,21.30
2019-05-19T16:02:01.262Z,21.20
2019-05-19T16:04:31.886Z,21.10
2019-05-19T16:07:01.932Z,21.00
2019-05-19T16:09:33.318Z,21.10
2019-05-19T16:12:03.300Z,21.80
2019-05-19T16:14:33.891Z,21.30
2019-05-19T16:17:03.933Z,21.30
2019-05-19T16:19:36.059Z,21.20
2019-05-19T16:22:05.991Z,21.20
2019-05-19T16:24:35.975Z,21.10
2019-05-19T16:27:06.101Z,21.20
2019-05-19T16:29:36.516Z,21.90
2019-05-19T16:32:06.454Z,21.70
2019-05-19T16:34:37.570Z,21.80
2019-05-19T16:37:07.549Z,21.70
2019-05-19T16:39:37.517Z,21.90
2019-05-19T16:42:09.081Z,21.70
2019-05-19T16:44:39.094Z,21.80
2019-05-19T16:47:11.591Z,21.30
2019-05-19T16:49:41.664Z,21.50
2019-05-19T16:52:11.946Z,21.40
2019-05-19T16:54:44.978Z,22.00
2019-05-19T16:57:15.529Z,21.90
2019-05-19T16:59:46.178Z,22.10
2019-05-19T17:02:16.016Z,22.10
2019-05-19T17:04:46.150Z,22.10
2019-05-19T17:07:15.780Z,21.70
2019-05-19T17:09:45.768Z,22.50
2019-05-19T17:12:17.830Z,22.00
2019-05-19T17:14:49.209Z,21.90
2019-05-19T17:17:19.351Z,21.20
2019-05-19T17:19:49.356Z,21.70
2019-05-19T17:22:26.470Z,21.70
2019-05-19T17:25:00.427Z,21.70
2019-05-19T17:27:31.743Z,21.80
2019-05-19T17:30:03.978Z,21.70
2019-05-19T17:32:34.211Z,21.60
2019-05-19T17:35:07.225Z,21.40
2019-05-19T17:37:37.812Z,21.40
2019-05-19T17:40:08.816Z,21.30
2019-05-19T17:42:39.443Z,21.50
2019-05-19T17:45:12.415Z,21.00
2019-05-19T17:47:42.851Z,20.90
2019-05-19T17:50:13.527Z,20.70
2019-05-19T17:52:43.575Z,20.60
2019-05-19T17:55:13.523Z,20.70
2019-05-19T17:57:45.568Z,20.70
2019-05-19T18:00:20.119Z,20.60
2019-05-19T18:02:50.523Z,20.70
2019-05-19T18:05:20.582Z,20.50
2019-05-19T18:07:51.999Z,20.60
2019-05-19T18:10:24.106Z,20.60
2019-05-19T18:12:54.016Z,20.40
2019-05-19T18:15:28.450Z,20.20
2019-05-19T18:17:58.703Z,20.10
2019-05-19T18:20:28.803Z,19.70
2019-05-19T18:22:59.529Z,19.60
2019-05-19T18:25:30.169Z,19.50
2019-05-19T18:28:02.119Z,19.50
2019-05-19T18:30:32.210Z,19.40
2019-05-19T18:33:02.623Z,19.10
2019-05-19T18:35:33.616Z,18.80
2019-05-19T18:38:03.332Z,18.70
2019-05-19T18:40:33.407Z,18.70
2019-05-19T18:43:03.272Z,18.50
2019-05-19T18:45:33.668Z,18.50
2019-05-19T18:48:03.791Z,18.30
2019-05-19T18:50:33.710Z,18.10
2019-05-19T18:53:03.741Z,17.50
2019-05-19T18:55:33.846Z,17.80
2019-05-19T18:58:04.727Z,17.60
2019-05-19T19:00:36.458Z,17.60
2019-05-19T19:03:06.959Z,17.30
2019-05-19T19:05:37.024Z,17.50
2019-05-19T19:08:06.987Z,17.30
2019-05-19T19:10:38.033Z,17.20
2019-05-19T19:13:09.448Z,16.90
2019-05-19T19:15:40.096Z,16.80
2019-05-19T19:18:09.862Z,16.70
2019-05-19T19:20:39.982Z,16.60
2019-05-19T19:23:10.079Z,16.50
2019-05-19T19:25:39.998Z,16.50
2019-05-19T19:28:11.480Z,16.50
2019-05-19T19:30:44.949Z,16.30
2019-05-19T19:33:19.516Z,16.30
2019-05-19T19:35:50.259Z,16.20
2019-05-19T19:38:20.206Z,16.10
2019-05-19T19:40:50.050Z,16.20
2019-05-19T19:43:20.137Z,16.20
2019-05-19T19:45:49.742Z,16.00
2019-05-19T19:48:24.019Z,15.80
2019-05-19T19:50:54.334Z,15.90
2019-05-19T19:53:32.395Z,16.00
2019-05-19T19:56:02.658Z,15.90
2019-05-19T19:58:33.706Z,15.80
2019-05-19T20:01:04.121Z,15.60
2019-05-19T20:03:39.388Z,15.50
2019-05-19T20:06:05.750Z,15.60
2019-05-19T20:08:35.829Z,15.50
2019-05-19T20:11:08.828Z,15.40
2019-05-19T20:13:38.780Z,15.40
2019-05-19T20:16:14.774Z,15.30
2019-05-19T20:19:03.791Z,15.20
2019-05-19T20:21:33.852Z,15.30
2019-05-19T20:24:03.891Z,15.20
2019-05-19T20:26:33.602Z,15.10
2019-05-19T20:29:03.554Z,15.20
2019-05-19T20:31:36.901Z,15.30
2019-05-19T20:34:07.004Z,15.30
2019-05-19T20:36:38.523Z,15.10
2019-05-19T20:39:08.541Z,15.20
2019-05-19T20:41:38.916Z,15.10
2019-05-19T20:44:12.388Z,15.00
2019-05-19T20:46:42.407Z,15.00
2019-05-19T20:49:12.165Z,14.90
2019-05-19T20:51:42.370Z,14.90
2019-05-19T20:54:12.474Z,15.00
2019-05-19T20:56:43.039Z,14.90
2019-05-19T20:59:13.504Z,14.80
2019-05-19T21:01:48.601Z,14.90
2019-05-19T21:04:19.139Z,14.90
2019-05-19T21:06:49.160Z,14.80
2019-05-19T21:09:19.157Z,14.80
2019-05-19T21:11:49.123Z,14.70
2019-05-19T21:14:19.158Z,14.80
2019-05-19T21:16:49.805Z,14.80
2019-05-19T21:19:22.942Z,14.70
2019-05-19T21:21:53.601Z,14.80
2019-05-19T21:24:23.629Z,14.60
2019-05-19T21:26:53.648Z,14.60
2019-05-19T21:29:23.394Z,14.60
2019-05-19T21:31:53.671Z,14.50
2019-05-19T21:34:23.405Z,14.40
2019-05-19T21:36:53.872Z,14.40
2019-05-19T21:39:24.911Z,14.40
2019-05-19T21:41:54.733Z,14.40
2019-05-19T21:44:25.967Z,14.30
2019-05-19T21:47:00.353Z,14.40
2019-05-19T21:49:32.789Z,14.20
2019-05-19T21:52:05.363Z,14.20
2019-05-19T21:54:35.502Z,14.10
2019-05-19T21:57:05.957Z,14.10
2019-05-19T21:59:36.414Z,14.10
2019-05-19T22:02:06.435Z,14.00
2019-05-19T22:04:36.495Z,14.10
2019-05-19T22:07:12.071Z,14.00
2019-05-19T22:09:41.920Z,13.90
2019-05-19T22:12:11.941Z,14.00
2019-05-19T22:14:41.982Z,14.00
2019-05-19T22:17:13.201Z,14.00
2019-05-19T22:19:44.530Z,13.90
2019-05-19T22:22:14.715Z,13.80
2019-05-19T22:24:44.682Z,13.80
2019-05-19T22:27:15.038Z,13.90
2019-05-19T22:29:45.276Z,13.70
2019-05-19T22:32:15.251Z,13.80
2019-05-19T22:34:45.287Z,13.70
2019-05-19T22:37:15.091Z,13.70
2019-05-19T22:39:45.211Z,13.70
2019-05-19T22:42:15.316Z,13.70
2019-05-19T22:44:45.684Z,13.70
2019-05-19T22:47:15.706Z,13.60
2019-05-19T22:49:45.777Z,13.60
2019-05-19T22:52:15.895Z,13.60
2019-05-19T22:54:45.946Z,13.50
2019-05-19T22:57:18.019Z,13.50
2019-05-19T22:59:47.435Z,13.40
2019-05-19T23:02:17.250Z,13.40
2019-05-19T23:04:46.974Z,13.40
2019-05-19T23:07:16.930Z,13.30
2019-05-19T23:09:46.932Z,13.30
2019-05-19T23:12:16.935Z,13.30
2019-05-19T23:14:47.881Z,13.20
2019-05-19T23:17:17.943Z,13.10
2019-05-19T23:19:48.586Z,13.20
2019-05-19T23:22:18.376Z,13.10
2019-05-19T23:24:48.401Z,13.10
2019-05-19T23:27:18.419Z,13.00
2019-05-19T23:29:48.668Z,13.00
2019-05-19T23:32:18.991Z,13.00
2019-05-19T23:34:49.441Z,12.90
2019-05-19T23:37:19.640Z,12.90
2019-05-19T23:39:49.689Z,12.80
2019-05-19T23:42:20.045Z,12.90
2019-05-19T23:44:50.445Z,12.90
2019-05-19T23:47:20.222Z,13.00
2019-05-19T23:49:50.273Z,13.00
2019-05-19T23:52:20.255Z,13.00
2019-05-19T23:54:50.296Z,13.10
2019-05-19T23:57:20.182Z,13.00
2019-05-19T23:59:51.519Z,13.00
